Terminal Aerodrome Forecast
Issued by NWS

Home | Current Version | Previous Version | Graphics & Text | Print | Product List | Glossary On
Versions: 1 2 3 4 5 6 7 8 9 10 11 12 13 14 15 16 17 18 19 20
000
FTUS43 KLSX 251600 AAB
TAFSUS
TAF AMD
KSUS 251619Z 2516/2612 28007KT P6SM SCT030
     FM252300 00000KT P6SM SCT250
     FM261000 14007KT P6SM BKN100=

USA.gov is the U.S. government's official web portal to all federal, state and local government web resources and services.